createdAt,value
2022-10-26T00:01:05.671Z,100194.34
2022-10-26T00:03:34.144Z,100200.00
2022-10-26T00:06:21.170Z,100191.69
2022-10-26T00:08:48.907Z,100205.25
2022-10-26T00:11:17.216Z,100201.41
2022-10-26T00:13:45.807Z,100194.56
2022-10-26T00:16:24.697Z,100216.19
2022-10-26T00:18:52.855Z,100222.81
2022-10-26T00:21:19.976Z,100210.59
2022-10-26T00:23:46.718Z,100207.78
2022-10-26T00:26:13.722Z,100193.16
2022-10-26T00:28:40.570Z,100197.63
2022-10-26T00:31:12.278Z,100190.63
2022-10-26T00:33:39.079Z,100183.31
2022-10-26T00:36:06.273Z,100204.09
2022-10-26T00:38:33.078Z,100192.28
2022-10-26T00:40:59.975Z,100206.22
2022-10-26T00:43:27.565Z,100197.75
2022-10-26T00:45:57.326Z,100182.41
2022-10-26T00:48:28.785Z,100198.69
2022-10-26T00:50:58.959Z,100183.59
2022-10-26T00:53:26.544Z,100228.16
2022-10-26T00:55:54.649Z,100199.00
2022-10-26T00:58:23.232Z,100204.66
2022-10-26T01:00:51.417Z,100191.03
2022-10-26T01:03:19.683Z,100194.69
2022-10-26T01:05:48.614Z,100186.28
2022-10-26T01:08:17.217Z,100186.91
2022-10-26T01:10:44.470Z,100186.44
2022-10-26T01:13:12.938Z,100171.66
2022-10-26T01:15:48.476Z,100195.44
2022-10-26T01:18:52.691Z,100187.09
2022-10-26T01:21:22.218Z,100186.00
2022-10-26T01:24:04.362Z,100175.38
2022-10-26T01:26:43.627Z,100182.81
2022-10-26T01:29:38.762Z,100173.97
2022-10-26T01:32:12.180Z,100178.75
2022-10-26T01:34:48.039Z,100185.94
2022-10-26T01:37:31.006Z,100184.75
2022-10-26T01:40:09.339Z,100182.59
2022-10-26T01:42:42.617Z,100159.28
2022-10-26T01:45:11.753Z,100183.78
2022-10-26T01:47:39.885Z,100165.16
2022-10-26T01:50:08.416Z,100156.00
2022-10-26T01:52:35.132Z,100167.84
2022-10-26T01:55:36.462Z,100153.09
2022-10-26T01:58:29.315Z,100162.53
2022-10-26T02:01:33.272Z,100180.69
2022-10-26T02:04:18.460Z,100174.34
2022-10-26T02:07:01.566Z,100187.66
2022-10-26T02:10:10.790Z,100175.91
2022-10-26T02:12:42.507Z,100190.19
2022-10-26T02:15:17.927Z,100175.28
2022-10-26T02:17:48.019Z,100174.06
2022-10-26T02:20:22.129Z,100176.19
2022-10-26T02:22:52.310Z,100183.00
2022-10-26T02:25:29.084Z,100166.44
2022-10-26T02:28:00.688Z,100185.84
2022-10-26T02:30:27.811Z,100172.19
2022-10-26T02:32:57.035Z,100179.22
2022-10-26T02:35:29.346Z,100181.56
2022-10-26T02:37:59.499Z,100174.53
2022-10-26T02:40:28.378Z,100177.06
2022-10-26T02:43:01.025Z,100182.25
2022-10-26T02:45:33.424Z,100164.78
2022-10-26T02:48:00.432Z,100181.28
2022-10-26T02:50:44.866Z,100177.97
2022-10-26T02:53:26.312Z,100189.13
2022-10-26T02:55:53.246Z,100189.28
2022-10-26T02:58:25.997Z,100184.97
2022-10-26T03:00:53.744Z,100182.78
2022-10-26T03:03:21.347Z,100180.28
2022-10-26T03:05:48.170Z,100191.88
2022-10-26T03:08:15.032Z,100188.59
2022-10-26T03:10:44.847Z,100191.56
2022-10-26T03:13:13.171Z,100181.34
2022-10-26T03:15:40.049Z,100205.84
2022-10-26T03:18:07.362Z,100177.34
2022-10-26T03:20:34.215Z,100197.63
2022-10-26T03:23:01.028Z,100170.06
2022-10-26T03:25:27.924Z,100179.22
2022-10-26T03:27:59.508Z,100180.91
2022-10-26T03:30:26.867Z,100177.22
2022-10-26T03:32:53.665Z,100173.78
2022-10-26T03:35:20.384Z,100174.75
2022-10-26T03:37:47.487Z,100177.06
2022-10-26T03:40:14.523Z,100176.25
2022-10-26T03:42:41.439Z,100172.41
2022-10-26T03:45:09.540Z,100157.28
2022-10-26T03:47:46.293Z,100163.06
2022-10-26T03:50:14.480Z,100142.13
2022-10-26T03:52:41.657Z,100168.03
2022-10-26T03:55:09.248Z,100158.59
2022-10-26T03:57:41.820Z,100168.94
2022-10-26T04:00:10.292Z,100164.31
2022-10-26T04:02:37.130Z,100165.28
2022-10-26T04:05:04.348Z,100166.75
2022-10-26T04:07:31.041Z,100173.84
2022-10-26T04:09:57.794Z,100163.28
2022-10-26T04:12:24.601Z,100179.41
2022-10-26T04:14:51.395Z,100175.44
2022-10-26T04:17:18.153Z,100185.91
2022-10-26T04:19:44.946Z,100186.28
2022-10-26T04:22:12.984Z,100178.13
2022-10-26T04:24:39.710Z,100184.94
2022-10-26T04:27:06.504Z,100186.94
2022-10-26T04:29:33.191Z,100194.94
2022-10-26T04:31:59.915Z,100182.66
2022-10-26T04:34:26.826Z,100192.81
2022-10-26T04:36:53.503Z,100184.69
2022-10-26T04:39:20.184Z,100186.00
2022-10-26T04:41:46.905Z,100197.28
2022-10-26T04:44:13.585Z,100187.66
2022-10-26T04:46:40.359Z,100195.47
2022-10-26T04:49:07.152Z,100183.19
2022-10-26T04:51:33.840Z,100205.44
2022-10-26T04:54:00.591Z,100212.53
2022-10-26T04:56:27.538Z,100208.03
2022-10-26T04:58:54.632Z,100207.38
2022-10-26T05:01:22.129Z,100187.63
2022-10-26T05:03:53.266Z,100201.25
2022-10-26T05:06:21.007Z,100201.44
2022-10-26T05:08:47.777Z,100205.59
2022-10-26T05:11:14.899Z,100209.53
2022-10-26T05:13:41.823Z,100206.41
2022-10-26T05:16:08.844Z,100195.47
2022-10-26T05:18:35.636Z,100204.25
2022-10-26T05:21:02.524Z,100201.94
2022-10-26T05:23:29.209Z,100205.75
2022-10-26T05:25:57.132Z,100205.56
2022-10-26T05:28:24.161Z,100201.41
2022-10-26T05:30:50.927Z,100205.75
2022-10-26T05:33:18.084Z,100202.28
2022-10-26T05:35:44.840Z,100206.59
2022-10-26T05:38:15.013Z,100203.25
2022-10-26T05:40:49.219Z,100200.44
2022-10-26T05:43:16.137Z,100219.69
2022-10-26T05:45:42.899Z,100218.03
2022-10-26T05:48:09.731Z,100230.97
2022-10-26T05:50:36.646Z,100226.00
2022-10-26T05:53:03.480Z,100227.13
2022-10-26T05:55:31.008Z,100221.81
2022-10-26T05:57:58.284Z,100219.50
2022-10-26T06:00:27.705Z,100205.25
2022-10-26T06:03:23.421Z,100222.16
2022-10-26T06:05:55.752Z,100209.25
2022-10-26T06:08:25.241Z,100220.16
2022-10-26T06:10:52.715Z,100208.88
2022-10-26T06:13:19.800Z,100217.47
2022-10-26T06:16:13.083Z,100207.69
2022-10-26T06:19:13.960Z,100198.38
2022-10-26T06:21:49.753Z,100217.78
2022-10-26T06:24:28.567Z,100209.00
2022-10-26T06:26:58.139Z,100203.38
2022-10-26T06:29:51.133Z,100214.66
2022-10-26T06:32:18.165Z,100223.75
2022-10-26T06:34:49.105Z,100224.75
2022-10-26T06:37:16.900Z,100207.84
2022-10-26T06:39:52.690Z,100222.81
2022-10-26T06:42:21.742Z,100225.50
2022-10-26T06:44:49.094Z,100213.19
2022-10-26T06:47:31.366Z,100221.00
2022-10-26T06:50:12.259Z,100238.75
2022-10-26T06:52:43.894Z,100225.16
2022-10-26T06:55:15.487Z,100231.81
2022-10-26T06:57:44.128Z,100228.63
2022-10-26T07:00:22.025Z,100229.81
2022-10-26T07:02:50.316Z,100237.78
2022-10-26T07:05:17.914Z,100232.81
2022-10-26T07:07:47.210Z,100231.63
2022-10-26T07:10:15.624Z,100243.41
2022-10-26T07:12:42.355Z,100260.69
2022-10-26T07:17:48.759Z,100248.22
2022-10-26T07:20:21.592Z,100264.63
2022-10-26T07:22:57.960Z,100258.69
2022-10-26T07:25:26.187Z,100252.03
2022-10-26T07:27:56.851Z,100274.59
2022-10-26T07:30:23.839Z,100267.94
2022-10-26T07:32:50.880Z,100273.78
2022-10-26T07:35:17.873Z,100263.63
2022-10-26T07:37:44.634Z,100279.41
2022-10-26T07:40:11.547Z,100272.91
2022-10-26T07:42:38.345Z,100287.06
2022-10-26T07:45:05.598Z,100284.06
2022-10-26T07:47:32.357Z,100294.81
2022-10-26T07:49:59.127Z,100282.41
2022-10-26T07:52:25.892Z,100281.91
2022-10-26T07:54:52.633Z,100281.72
2022-10-26T07:57:19.370Z,100279.56
2022-10-26T07:59:46.453Z,100279.22
2022-10-26T08:02:13.264Z,100272.44
2022-10-26T08:04:40.018Z,100271.91
2022-10-26T08:07:06.787Z,100287.84
2022-10-26T08:09:33.533Z,100294.13
2022-10-26T08:12:00.266Z,100292.81
2022-10-26T08:14:27.094Z,100285.81
2022-10-26T08:16:53.815Z,100284.72
2022-10-26T08:19:20.823Z,100285.69
2022-10-26T08:21:47.649Z,100300.69
2022-10-26T08:24:14.621Z,100298.41
2022-10-26T08:26:41.951Z,100303.09
2022-10-26T08:29:08.845Z,100321.06
2022-10-26T08:31:35.544Z,100322.94
2022-10-26T08:34:04.138Z,100317.59
2022-10-26T08:36:31.391Z,100309.13
2022-10-26T08:41:42.601Z,100302.34
2022-10-26T08:44:27.266Z,100297.13
2022-10-26T08:47:00.880Z,100288.94
2022-10-26T08:49:32.783Z,100303.22
2022-10-26T08:52:02.549Z,100303.47
2022-10-26T08:54:34.847Z,100308.44
2022-10-26T08:57:11.748Z,100303.50
2022-10-26T08:59:49.469Z,100304.47
2022-10-26T09:02:18.302Z,100317.56
2022-10-26T09:04:45.703Z,100312.47
2022-10-26T09:07:41.739Z,100314.47
2022-10-26T09:10:30.136Z,100308.78
2022-10-26T09:13:10.472Z,100311.81
2022-10-26T09:16:02.758Z,100316.47
2022-10-26T09:19:13.934Z,100325.56
2022-10-26T09:21:51.565Z,100324.75
2022-10-26T09:24:54.507Z,100316.66
2022-10-26T09:27:30.282Z,100342.28
2022-10-26T09:29:59.937Z,100308.69
2022-10-26T09:32:30.732Z,100339.16
2022-10-26T09:35:03.121Z,100324.56
2022-10-26T09:37:40.296Z,100328.69
2022-10-26T09:40:55.417Z,100332.91
2022-10-26T09:43:45.304Z,100336.59
2022-10-26T09:46:18.928Z,100323.75
2022-10-26T09:48:54.202Z,100334.06
2022-10-26T09:51:21.033Z,100353.59
2022-10-26T09:53:48.483Z,100340.50
2022-10-26T09:56:17.358Z,100316.03
2022-10-26T09:58:53.742Z,100331.22
2022-10-26T10:01:40.094Z,100327.25
2022-10-26T10:04:20.416Z,100335.28
2022-10-26T10:07:13.495Z,100319.91
2022-10-26T10:09:40.365Z,100316.41
2022-10-26T10:12:19.501Z,100326.88
2022-10-26T10:14:59.875Z,100314.44
2022-10-26T10:17:26.798Z,100297.91
2022-10-26T10:19:54.074Z,100322.16
2022-10-26T10:22:25.423Z,100347.59
2022-10-26T10:24:57.473Z,100325.88
2022-10-26T10:27:26.095Z,100343.84
2022-10-26T10:30:01.283Z,100337.63
2022-10-26T10:32:35.585Z,100333.38
2022-10-26T10:35:23.886Z,100348.66
2022-10-26T10:37:52.499Z,100323.81
2022-10-26T10:40:27.859Z,100330.00
2022-10-26T10:43:07.297Z,100311.19
2022-10-26T10:45:35.549Z,100316.03
2022-10-26T10:48:19.061Z,100298.81
2022-10-26T10:50:55.546Z,100322.16
2022-10-26T10:53:37.630Z,100315.38
2022-10-26T10:56:42.625Z,100294.72
2022-10-26T10:59:34.567Z,100294.34
2022-10-26T11:02:23.138Z,100294.28
2022-10-26T11:05:06.149Z,100289.91
2022-10-26T11:07:41.042Z,100283.97
2022-10-26T11:10:15.854Z,100304.22
2022-10-26T11:12:52.676Z,100300.34
2022-10-26T11:15:24.402Z,100304.94
2022-10-26T11:18:00.697Z,100303.78
2022-10-26T11:20:30.224Z,100290.88
2022-10-26T11:23:02.194Z,100305.44
2022-10-26T11:25:42.377Z,100280.13
2022-10-26T11:28:48.456Z,100278.81
2022-10-26T11:31:21.471Z,100276.09
2022-10-26T11:34:08.384Z,100278.69
2022-10-26T11:36:37.667Z,100279.16
2022-10-26T11:39:23.608Z,100268.75
2022-10-26T11:41:52.715Z,100261.75
2022-10-26T11:44:29.182Z,100257.59
2022-10-26T11:47:01.843Z,100246.47
2022-10-26T11:49:36.518Z,100242.38
2022-10-26T11:52:30.836Z,100226.50
2022-10-26T11:55:04.797Z,100219.00
2022-10-26T11:57:37.658Z,100190.47
2022-10-26T12:00:13.689Z,100218.34
2022-10-26T12:05:15.671Z,100194.22
2022-10-26T12:07:49.473Z,100182.09
2022-10-26T12:10:43.861Z,100188.28
2022-10-26T12:13:16.753Z,100180.06
2022-10-26T12:16:04.528Z,100170.09
2022-10-26T12:18:54.003Z,100168.00
2022-10-26T12:21:18.957Z,100163.91
2022-10-26T12:23:54.580Z,100154.72
2022-10-26T12:26:24.272Z,100152.56
2022-10-26T12:29:03.071Z,100156.66
2022-10-26T12:31:32.752Z,100156.66
2022-10-26T12:34:00.589Z,100149.72
2022-10-26T12:36:48.965Z,100147.00
2022-10-26T12:39:41.613Z,100128.25
2022-10-26T12:42:08.364Z,100129.06
2022-10-26T12:44:48.505Z,100130.19
2022-10-26T12:47:30.509Z,100095.06
2022-10-26T12:50:01.042Z,100097.69
2022-10-26T12:53:09.932Z,100093.75
2022-10-26T12:56:05.305Z,100085.69
2022-10-26T12:59:04.646Z,100079.16
2022-10-26T13:02:08.629Z,100077.31
2022-10-26T13:04:47.541Z,100079.72
2022-10-26T13:07:24.590Z,100079.03
2022-10-26T13:10:00.456Z,100082.19
2022-10-26T13:12:29.757Z,100075.19
2022-10-26T13:15:04.016Z,100063.69
2022-10-26T13:20:06.669Z,100057.22
2022-10-26T13:22:33.820Z,100061.84
2022-10-26T13:25:03.880Z,100036.34
2022-10-26T13:27:33.415Z,100064.66
2022-10-26T13:30:05.737Z,100056.91
2022-10-26T13:32:52.767Z,100052.16
2022-10-26T13:35:21.649Z,100059.69
2022-10-26T13:37:52.160Z,100044.31
2022-10-26T13:40:26.274Z,100044.50
2022-10-26T13:42:57.016Z,100033.63
2022-10-26T13:45:28.375Z,100044.69
2022-10-26T13:48:06.336Z,100041.47
2022-10-26T13:53:30.027Z,100033.25
2022-10-26T13:56:08.940Z,100024.81
2022-10-26T13:59:03.755Z,100018.16
2022-10-26T14:01:31.623Z,100008.03
2022-10-26T14:03:58.806Z,100007.50
2022-10-26T14:06:36.307Z,100008.38
2022-10-26T14:09:07.136Z,99988.63
2022-10-26T14:11:37.280Z,99990.06
2022-10-26T14:14:05.158Z,99973.69
2022-10-26T14:16:34.417Z,99959.84
2022-10-26T14:19:01.469Z,99978.50
2022-10-26T14:21:28.663Z,99968.72
2022-10-26T14:24:00.329Z,99956.16
2022-10-26T14:26:39.891Z,99950.78
2022-10-26T14:29:20.524Z,99951.25
2022-10-26T14:31:49.435Z,99940.50
2022-10-26T14:34:17.512Z,99950.34
2022-10-26T14:36:44.160Z,99952.94
2022-10-26T14:39:27.684Z,99942.78
2022-10-26T14:41:56.261Z,99930.59
2022-10-26T14:44:25.232Z,99917.47
2022-10-26T14:46:52.886Z,99909.34
2022-10-26T14:49:22.825Z,99916.81
2022-10-26T14:51:57.028Z,99921.72
2022-10-26T14:54:29.235Z,99906.03
2022-10-26T14:56:56.712Z,99919.06
2022-10-26T14:59:30.098Z,99903.56
2022-10-26T15:01:59.097Z,99904.44
2022-10-26T15:04:33.430Z,99893.00
2022-10-26T15:07:12.552Z,99888.81
2022-10-26T15:09:43.377Z,99888.81
2022-10-26T15:12:38.789Z,99879.78
2022-10-26T15:17:52.679Z,99875.78
2022-10-26T15:20:25.773Z,99882.63
2022-10-26T15:23:03.082Z,99888.75
2022-10-26T15:25:34.624Z,99882.09
2022-10-26T15:28:25.642Z,99885.59
2022-10-26T15:31:11.685Z,99880.72
2022-10-26T15:34:03.254Z,99872.16
2022-10-26T15:36:31.817Z,99881.13
2022-10-26T15:38:59.705Z,99889.28
2022-10-26T15:41:33.975Z,99891.78
2022-10-26T15:44:05.974Z,99884.03
2022-10-26T15:46:35.657Z,99895.41
2022-10-26T15:49:04.641Z,99899.91
2022-10-26T15:51:31.617Z,99897.91
2022-10-26T15:54:00.426Z,99887.81
2022-10-26T15:56:27.209Z,99895.56
2022-10-26T15:58:57.214Z,99891.97
2022-10-26T16:01:26.397Z,99899.31
2022-10-26T16:03:53.589Z,99903.38
2022-10-26T16:06:31.134Z,99903.03
2022-10-26T16:09:00.836Z,99889.53
2022-10-26T16:11:28.571Z,99898.94
2022-10-26T16:13:57.214Z,99907.50
2022-10-26T16:16:26.477Z,99893.59
2022-10-26T16:19:11.973Z,99885.03
2022-10-26T16:21:42.624Z,99898.44
2022-10-26T16:24:09.957Z,99895.19
2022-10-26T16:26:36.724Z,99894.38
2022-10-26T16:29:03.688Z,99888.63
2022-10-26T16:31:30.479Z,99900.81
2022-10-26T16:34:00.274Z,99900.00
2022-10-26T16:36:29.985Z,99898.38
2022-10-26T16:38:56.834Z,99909.78
2022-10-26T16:43:56.642Z,99916.63
2022-10-26T16:46:23.922Z,99924.41
2022-10-26T16:48:51.786Z,99937.59
2022-10-26T16:51:21.654Z,99936.13
2022-10-26T16:53:50.297Z,99938.16
2022-10-26T16:56:19.745Z,99954.22
2022-10-26T16:58:46.775Z,99961.53
2022-10-26T17:01:18.252Z,99947.84
2022-10-26T17:03:46.296Z,99956.38
2022-10-26T17:06:13.483Z,99954.59
2022-10-26T17:08:40.459Z,99962.22
2022-10-26T17:11:09.785Z,99955.94
2022-10-26T17:13:37.813Z,99929.34
2022-10-26T17:16:19.428Z,99956.94
2022-10-26T17:18:50.232Z,99958.78
2022-10-26T17:21:19.655Z,99952.56
2022-10-26T17:23:46.748Z,99965.69
2022-10-26T17:26:15.143Z,99963.50
2022-10-26T17:28:41.994Z,99961.59
2022-10-26T17:31:14.012Z,99955.44
2022-10-26T17:33:45.457Z,99966.72
2022-10-26T17:36:13.541Z,99964.50
2022-10-26T17:38:42.005Z,99974.03
2022-10-26T17:41:11.264Z,99975.88
2022-10-26T17:43:39.345Z,99972.88
2022-10-26T17:46:08.446Z,99978.06
2022-10-26T17:48:35.383Z,99990.88
2022-10-26T17:51:05.281Z,100003.81
2022-10-26T17:53:32.165Z,99998.34
2022-10-26T17:56:08.915Z,100003.06
2022-10-26T17:58:36.208Z,99995.34
2022-10-26T18:01:08.710Z,100007.91
2022-10-26T18:03:35.680Z,100012.66
2022-10-26T18:06:03.364Z,100014.56
2022-10-26T18:08:34.032Z,100022.34
2022-10-26T18:11:01.421Z,100018.34
2022-10-26T18:13:29.321Z,100025.66
2022-10-26T18:15:56.265Z,100023.06
2022-10-26T18:18:23.006Z,99999.72
2022-10-26T18:20:49.878Z,100029.56
2022-10-26T18:23:16.704Z,100020.69
2022-10-26T18:25:43.438Z,100016.56
2022-10-26T18:30:41.878Z,100015.19
2022-10-26T18:33:08.570Z,100014.63
2022-10-26T18:35:35.316Z,100017.38
2022-10-26T18:38:02.162Z,100023.38
2022-10-26T18:40:28.939Z,100022.03
2022-10-26T18:42:55.784Z,100019.59
2022-10-26T18:45:31.753Z,100014.44
2022-10-26T18:47:58.435Z,100025.66
2022-10-26T18:50:25.116Z,100021.63
2022-10-26T18:52:51.972Z,100030.72
2022-10-26T18:55:18.712Z,100025.66
2022-10-26T18:57:45.412Z,100017.00
2022-10-26T19:00:12.955Z,100012.03
2022-10-26T19:02:39.687Z,100018.81
2022-10-26T19:05:06.970Z,100022.03
2022-10-26T19:07:33.752Z,100018.72
2022-10-26T19:10:00.471Z,100021.09
2022-10-26T19:12:27.173Z,100015.44
2022-10-26T19:14:53.934Z,100017.78
2022-10-26T19:17:22.086Z,100016.47
2022-10-26T19:19:49.089Z,100029.50
2022-10-26T19:22:15.930Z,100030.66
2022-10-26T19:24:47.540Z,100032.69
2022-10-26T19:27:14.315Z,100032.94
2022-10-26T19:29:41.419Z,100050.19
2022-10-26T19:32:08.213Z,100047.94
2022-10-26T19:34:34.925Z,100049.84
2022-10-26T19:37:01.737Z,100040.44
2022-10-26T19:39:28.414Z,100059.06
2022-10-26T19:41:55.093Z,100021.66
2022-10-26T19:44:25.391Z,100051.06
2022-10-26T19:46:52.438Z,100051.28
2022-10-26T19:49:19.228Z,100041.13
2022-10-26T19:51:48.019Z,100069.69
2022-10-26T19:54:14.785Z,100072.41
2022-10-26T19:56:41.479Z,100079.47
2022-10-26T19:59:09.537Z,100085.63
2022-10-26T20:01:37.305Z,100084.31
2022-10-26T20:04:05.058Z,100074.00
2022-10-26T20:06:32.029Z,100074.97
2022-10-26T20:08:59.962Z,100077.53
2022-10-26T20:11:26.809Z,100082.78
2022-10-26T20:13:55.613Z,100078.47
2022-10-26T20:16:22.436Z,100069.03
2022-10-26T20:18:49.353Z,100023.34
2022-10-26T20:21:17.710Z,100039.97
2022-10-26T20:23:45.560Z,100035.00
2022-10-26T20:26:19.301Z,100028.41
2022-10-26T20:28:48.422Z,100032.69
2022-10-26T20:31:15.453Z,100052.41
2022-10-26T20:33:42.216Z,100061.63
2022-10-26T20:36:09.096Z,100070.84
2022-10-26T20:38:36.237Z,100077.00
2022-10-26T20:41:06.330Z,100077.00
2022-10-26T20:43:41.881Z,100059.50
2022-10-26T20:46:11.896Z,100075.69
2022-10-26T20:48:39.063Z,100079.56
2022-10-26T20:51:22.288Z,100068.97
2022-10-26T20:54:05.491Z,100084.69
2022-10-26T20:56:34.478Z,100078.31
2022-10-26T20:59:03.530Z,100068.59
2022-10-26T21:01:38.734Z,100081.13
2022-10-26T21:04:05.640Z,100073.34
2022-10-26T21:06:40.353Z,100044.06
2022-10-26T21:09:08.273Z,100046.66
2022-10-26T21:11:35.025Z,100015.72
2022-10-26T21:14:03.424Z,100097.94
2022-10-26T21:16:30.246Z,100098.88
2022-10-26T21:18:57.136Z,100084.69
2022-10-26T21:21:23.999Z,100097.34
2022-10-26T21:23:50.760Z,100094.84
2022-10-26T21:26:17.511Z,100103.34
2022-10-26T21:28:46.119Z,100100.28
2022-10-26T21:31:15.010Z,100089.53
2022-10-26T21:33:42.487Z,100070.91
2022-10-26T21:36:14.159Z,100066.97
2022-10-26T21:38:42.708Z,100068.16
2022-10-26T21:41:11.918Z,100062.72
2022-10-26T21:43:40.440Z,100067.13
2022-10-26T21:46:08.253Z,100074.31
2022-10-26T21:48:35.417Z,100091.78
2022-10-26T21:51:06.364Z,100101.84
2022-10-26T21:53:33.137Z,100115.75
2022-10-26T21:56:04.798Z,100099.34
2022-10-26T21:58:31.660Z,100104.44
2022-10-26T22:01:12.592Z,100086.47
2022-10-26T22:03:40.565Z,100087.31
2022-10-26T22:06:08.580Z,100101.47
2022-10-26T22:08:36.116Z,100092.97
2022-10-26T22:11:15.182Z,100089.69
2022-10-26T22:13:43.312Z,100101.00
2022-10-26T22:16:15.892Z,100076.69
2022-10-26T22:18:45.209Z,100057.53
2022-10-26T22:21:13.817Z,100102.03
2022-10-26T22:23:42.310Z,100110.22
2022-10-26T22:26:23.144Z,100120.47
2022-10-26T22:28:59.330Z,100124.59
2022-10-26T22:31:27.687Z,100117.50
2022-10-26T22:34:04.729Z,100129.78
2022-10-26T22:36:34.352Z,100126.47
2022-10-26T22:39:01.204Z,100137.59
2022-10-26T22:41:28.016Z,100134.75
2022-10-26T22:43:54.813Z,100134.28
2022-10-26T22:46:26.908Z,100126.00
2022-10-26T22:48:58.965Z,100130.00
2022-10-26T22:51:28.807Z,100099.03
2022-10-26T22:53:56.341Z,100102.19
2022-10-26T22:58:56.879Z,100085.13
2022-10-26T23:01:26.679Z,100108.03
2022-10-26T23:03:56.377Z,100110.31
2022-10-26T23:06:25.196Z,100078.16
2022-10-26T23:08:51.959Z,100071.06
2022-10-26T23:11:20.538Z,100069.16
2022-10-26T23:13:47.517Z,100071.44
2022-10-26T23:16:17.985Z,100090.28
2022-10-26T23:18:45.132Z,100105.31
2022-10-26T23:21:13.662Z,100079.47
2022-10-26T23:23:41.085Z,100102.47
2022-10-26T23:26:16.871Z,100113.72
2022-10-26T23:28:44.632Z,100096.59
2022-10-26T23:31:17.637Z,100086.50
2022-10-26T23:33:44.826Z,100109.31
2022-10-26T23:36:11.623Z,100087.13
2022-10-26T23:38:38.549Z,100092.28
2022-10-26T23:41:07.151Z,100089.81
2022-10-26T23:43:36.295Z,100093.38
2022-10-26T23:46:03.184Z,100109.22
2022-10-26T23:48:30.060Z,100120.56
2022-10-26T23:50:57.045Z,100111.81
2022-10-26T23:53:27.335Z,100116.41
2022-10-26T23:55:54.174Z,100115.47
2022-10-26T23:58:20.928Z,100115.19
